Terminal Aerodrome Forecast
Issued by NWS Jacksonville, FL

Home | Current Version | Previous Version | Text Only | Print | Product List | Glossary On
Versions: 1 2 3 4 5 6 7 8 9 10 11 12 13 14 15 16 17 18 19 20 21 22 23 24
000
FTUS42 KJAX 051121
TAFJAX
TAF
KJAX 051121Z 0512/0612 21004KT P6SM SCT009 BKN035
      TEMPO 0512/0513 4SM BR
     FM051400 21007KT P6SM SCT040 SCT250
     FM051600 22012G20KT P6SM SCT040 BKN250
     FM052200 23010KT P6SM BKN040
     FM060200 28008KT P6SM VCSH BKN025
     FM060900 35009KT P6SM OVC015=

USA.gov is the U.S. government's official web portal to all federal, state and local government web resources and services.